Time;durP1;ratioP1;P1;durP2;ratioP2;P2;SDS_P1;SDS_P2;PMS_P1;PMS_P2;Temp;Humidity;BMP_temperature;BMP_pressure;BME280_temperature;BME280_humidity;BME280_pressure;Samples;Min_cycle;Max_cycle;Signal;HPM_P1;HPM_P2
2021/07/08 00:00:43;;;;;;;4.53;2.80;;;;;;;;;;5058607;28;20457;-71
2021/07/08 00:03:10;;;;;;;5.30;2.30;;;;;;;;;;5059594;28;20566;-71
2021/07/08 00:05:39;;;;;;;3.37;2.87;;;;;;;;;;5059073;28;20464;-71
2021/07/08 00:08:09;;;;;;;6.17;2.40;;;;;;;;;;5059476;28;20452;-72
2021/07/08 00:10:38;;;;;;;3.83;2.33;;;;;;;;;;5059273;28;20453;-71
2021/07/08 00:13:06;;;;;;;5.63;2.67;;;;;;;;;;5058452;28;20554;-71
2021/07/08 00:15:34;;;;;;;4.87;2.90;;;;;;;;;;5059116;28;20607;-71
2021/07/08 00:18:02;;;;;;;4.93;2.80;;;;;;;;;;5058890;28;20464;-72
2021/07/08 00:20:30;;;;;;;5.43;2.77;;;;;;;;;;5059115;28;20453;-72
2021/07/08 00:23:02;;;;;;;4.53;2.30;;;;;;;;;;5058842;28;20453;-72
2021/07/08 00:25:34;;;;;;;4.37;3.00;;;;;;;;;;5059577;28;20850;-73
2021/07/08 00:28:06;;;;;;;4.10;3.00;;;;;;;;;;5059801;28;20450;-73
2021/07/08 00:30:34;;;;;;;7.97;3.03;;;;;;;;;;5058965;28;20544;-72
2021/07/08 00:33:02;;;;;;;6.10;2.83;;;;;;;;;;5059068;28;20468;-72
2021/07/08 00:35:30;;;;;;;5.93;2.90;;;;;;;;;;5058187;28;20460;-72
2021/07/08 00:37:58;;;;;;;4.70;2.70;;;;;;;;;;5058148;28;20935;-72
2021/07/08 00:40:26;;;;;;;4.30;2.83;;;;;;;;;;5058465;28;20501;-72
2021/07/08 00:42:56;;;;;;;6.27;3.50;;;;;;;;;;5058050;28;20445;-72
2021/07/08 00:45:24;;;;;;;5.30;3.17;;;;;;;;;;5057994;28;20547;-72
2021/07/08 00:47:55;;;;;;;6.10;3.40;;;;;;;;;;5058450;28;20487;-71
2021/07/08 00:50:24;;;;;;;6.77;4.00;;;;;;;;;;5058398;28;20484;-72
2021/07/08 00:52:52;;;;;;;9.90;3.70;;;;;;;;;;5058354;28;20469;-73
2021/07/08 00:55:20;;;;;;;6.27;3.47;;;;;;;;;;5058234;28;20904;-73
2021/07/08 00:57:53;;;;;;;6.90;2.83;;;;;;;;;;5057281;28;20704;-73
2021/07/08 01:00:23;;;;;;;4.33;2.77;;;;;;;;;;5057051;28;20873;-72
2021/07/08 01:02:52;;;;;;;5.30;3.30;;;;;;;;;;5057927;28;20560;-73
2021/07/08 01:05:20;;;;;;;5.70;3.37;;;;;;;;;;5058184;28;20512;-73
2021/07/08 01:07:48;;;;;;;9.20;3.77;;;;;;;;;;5057994;28;20457;-73
2021/07/08 01:10:16;;;;;;;6.80;3.87;;;;;;;;;;5057709;28;20573;-73
2021/07/08 01:12:44;;;;;;;5.10;3.17;;;;;;;;;;5057565;28;20465;-73
2021/07/08 01:15:13;;;;;;;6.70;3.83;;;;;;;;;;5057545;28;20454;-72
2021/07/08 01:17:43;;;;;;;6.80;3.53;;;;;;;;;;5058122;28;20446;-72
2021/07/08 01:20:12;;;;;;;5.40;3.30;;;;;;;;;;5057872;28;20842;-72
2021/07/08 01:22:41;;;;;;;7.00;3.30;;;;;;;;;;5058005;28;20527;-72
2021/07/08 01:25:10;;;;;;;6.70;3.30;;;;;;;;;;5056965;28;20457;-72
2021/07/08 01:27:38;;;;;;;5.60;3.83;;;;;;;;;;5058644;28;20534;-72
2021/07/08 01:30:10;;;;;;;6.00;3.50;;;;;;;;;;5058396;28;20554;-72
2021/07/08 01:32:38;;;;;;;5.27;3.43;;;;;;;;;;5057740;28;20461;-72
2021/07/08 01:35:07;;;;;;;7.00;3.47;;;;;;;;;;5057358;28;21214;-72
2021/07/08 01:37:35;;;;;;;6.40;3.73;;;;;;;;;;5057318;28;20534;-72
2021/07/08 01:40:05;;;;;;;6.70;3.80;;;;;;;;;;5057189;28;20462;-72
2021/07/08 01:42:33;;;;;;;7.50;3.87;;;;;;;;;;5057331;28;20458;-72
2021/07/08 01:45:00;;;;;;;9.57;3.70;;;;;;;;;;5057719;28;20523;-72
2021/07/08 01:47:28;;;;;;;5.10;3.60;;;;;;;;;;5057186;28;20464;-72
2021/07/08 01:49:56;;;;;;;5.87;3.57;;;;;;;;;;5057565;28;20493;-72
2021/07/08 01:52:24;;;;;;;5.87;3.57;;;;;;;;;;5057272;28;20551;-72
2021/07/08 01:54:52;;;;;;;6.20;4.20;;;;;;;;;;5057481;28;20482;-72
2021/07/08 01:57:21;;;;;;;6.27;4.07;;;;;;;;;;5057387;28;20477;-72
2021/07/08 01:59:49;;;;;;;5.90;4.27;;;;;;;;;;5056887;28;20488;-72
2021/07/08 02:02:17;;;;;;;5.23;3.40;;;;;;;;;;5057604;28;20457;-73
2021/07/08 02:04:45;;;;;;;7.20;3.90;;;;;;;;;;5057292;28;20472;-73
2021/07/08 02:07:12;;;;;;;11.07;3.87;;;;;;;;;;5056645;28;20462;-72
2021/07/08 02:09:40;;;;;;;5.23;3.83;;;;;;;;;;5057214;28;20569;-72
2021/07/08 02:12:10;;;;;;;5.23;3.50;;;;;;;;;;5056620;28;20756;-72
2021/07/08 02:14:39;;;;;;;4.33;3.80;;;;;;;;;;5056801;28;20450;-73
2021/07/08 02:17:08;;;;;;;7.27;4.17;;;;;;;;;;5056268;28;20461;-72
2021/07/08 02:19:36;;;;;;;5.93;3.77;;;;;;;;;;5056816;28;20880;-72
2021/07/08 02:22:04;;;;;;;3.93;3.50;;;;;;;;;;5057034;28;20462;-72
2021/07/08 02:24:32;;;;;;;6.17;3.40;;;;;;;;;;5057225;28;20729;-72
2021/07/08 02:27:00;;;;;;;5.57;4.63;;;;;;;;;;5056865;28;20454;-72
2021/07/08 02:29:27;;;;;;;6.93;4.40;;;;;;;;;;5057201;28;20729;-72
2021/07/08 02:31:57;;;;;;;5.20;4.00;;;;;;;;;;5056172;28;20922;-72
2021/07/08 02:34:25;;;;;;;5.53;4.07;;;;;;;;;;5056632;28;20511;-72
2021/07/08 02:36:54;;;;;;;5.37;4.30;;;;;;;;;;5056892;28;20570;-72
2021/07/08 02:39:22;;;;;;;6.30;4.20;;;;;;;;;;5055715;28;20482;-72
2021/07/08 02:41:50;;;;;;;5.13;4.30;;;;;;;;;;5057019;28;20453;-72
2021/07/08 02:44:17;;;;;;;7.87;3.90;;;;;;;;;;5056033;28;20454;-72
2021/07/08 02:46:45;;;;;;;5.70;4.20;;;;;;;;;;5055582;28;20450;-73
2021/07/08 02:49:14;;;;;;;4.73;4.20;;;;;;;;;;5055775;28;20547;-72
2021/07/08 02:51:43;;;;;;;7.30;4.27;;;;;;;;;;5056119;28;20608;-72
2021/07/08 02:54:11;;;;;;;5.40;4.73;;;;;;;;;;5055483;28;20460;-72
2021/07/08 02:56:38;;;;;;;6.20;4.40;;;;;;;;;;5055778;28;20453;-72
2021/07/08 02:59:06;;;;;;;4.33;3.70;;;;;;;;;;5054497;28;20477;-71
2021/07/08 03:01:35;;;;;;;6.13;3.93;;;;;;;;;;5055293;28;20711;-72
2021/07/08 03:04:05;;;;;;;7.50;5.43;;;;;;;;;;5055919;28;20471;-72
2021/07/08 03:06:34;;;;;;;10.87;5.60;;;;;;;;;;5055541;28;20460;-72
2021/07/08 03:09:02;;;;;;;6.20;4.30;;;;;;;;;;5055305;28;20465;-72
2021/07/08 03:11:30;;;;;;;7.07;4.80;;;;;;;;;;5055303;28;21002;-72
2021/07/08 03:13:57;;;;;;;7.53;4.40;;;;;;;;;;5054770;28;20465;-72
2021/07/08 03:16:26;;;;;;;8.40;4.50;;;;;;;;;;5055167;28;20566;-72
2021/07/08 03:18:53;;;;;;;5.83;4.07;;;;;;;;;;5054954;28;20496;-72
2021/07/08 03:21:21;;;;;;;6.10;3.73;;;;;;;;;;5055131;28;20818;-72
2021/07/08 03:23:50;;;;;;;4.90;4.13;;;;;;;;;;5055000;28;20792;-72
2021/07/08 03:26:18;;;;;;;10.50;5.60;;;;;;;;;;5055433;28;20608;-71
2021/07/08 03:28:46;;;;;;;5.10;3.93;;;;;;;;;;5055227;28;20496;-72
2021/07/08 03:31:14;;;;;;;5.97;4.23;;;;;;;;;;5055185;28;20516;-71
2021/07/08 03:33:42;;;;;;;6.27;3.97;;;;;;;;;;5054916;28;20540;-71
2021/07/08 03:36:10;;;;;;;4.70;4.20;;;;;;;;;;5055945;28;20449;-71
2021/07/08 03:38:38;;;;;;;4.83;4.37;;;;;;;;;;5055958;28;20858;-71
2021/07/08 03:41:07;;;;;;;4.83;4.00;;;;;;;;;;5055875;28;20574;-71
2021/07/08 03:43:35;;;;;;;8.27;4.70;;;;;;;;;;5055825;28;20469;-71
2021/07/08 03:46:03;;;;;;;4.83;3.80;;;;;;;;;;5055647;28;20529;-71
2021/07/08 03:48:31;;;;;;;5.40;4.47;;;;;;;;;;5055950;28;20496;-71
2021/07/08 03:50:58;;;;;;;5.57;5.07;;;;;;;;;;5055742;28;21009;-71
2021/07/08 03:53:26;;;;;;;6.80;4.50;;;;;;;;;;5055677;28;20522;-72
2021/07/08 03:55:54;;;;;;;5.37;4.33;;;;;;;;;;5054379;28;20473;-71
2021/07/08 03:58:24;;;;;;;4.57;4.00;;;;;;;;;;5053459;28;20535;-72
2021/07/08 04:00:52;;;;;;;6.47;4.70;;;;;;;;;;5050907;28;21090;-71
2021/07/08 04:03:20;;;;;;;6.93;5.20;;;;;;;;;;5055496;28;20874;-71
2021/07/08 04:05:48;;;;;;;7.13;4.70;;;;;;;;;;5055496;28;20453;-71
2021/07/08 04:08:17;;;;;;;7.53;6.33;;;;;;;;;;5055880;28;20854;-72
2021/07/08 04:10:47;;;;;;;5.53;4.67;;;;;;;;;;5053947;28;20477;-72
2021/07/08 04:13:18;;;;;;;6.87;5.17;;;;;;;;;;5050466;28;20457;-71
2021/07/08 04:15:50;;;;;;;8.57;5.13;;;;;;;;;;5054717;28;20510;-73
2021/07/08 04:18:19;;;;;;;8.10;4.83;;;;;;;;;;5054215;28;20463;-72
2021/07/08 04:20:51;;;;;;;8.53;5.30;;;;;;;;;;5054877;28;20760;-72
2021/07/08 04:23:25;;;;;;;6.27;5.67;;;;;;;;;;5053962;28;20521;-72
2021/07/08 04:25:53;;;;;;;6.23;4.83;;;;;;;;;;5040082;28;20891;-72
2021/07/08 04:28:21;;;;;;;6.07;4.90;;;;;;;;;;5051662;28;20461;-72
2021/07/08 04:30:50;;;;;;;8.63;5.93;;;;;;;;;;5054702;28;20576;-72
2021/07/08 04:33:18;;;;;;;7.90;5.23;;;;;;;;;;5054678;28;20462;-72
2021/07/08 04:35:46;;;;;;;7.73;5.93;;;;;;;;;;5055494;28;20446;-72
2021/07/08 04:38:15;;;;;;;6.80;4.93;;;;;;;;;;5058074;28;20800;-72
2021/07/08 04:40:43;;;;;;;6.80;5.40;;;;;;;;;;5056706;28;20457;-72
2021/07/08 04:43:11;;;;;;;4.80;4.10;;;;;;;;;;5057161;28;20461;-71
2021/07/08 04:45:40;;;;;;;6.10;5.50;;;;;;;;;;5057016;28;20462;-72
2021/07/08 04:48:13;;;;;;;6.57;5.00;;;;;;;;;;5057829;28;20469;-72
2021/07/08 04:50:41;;;;;;;7.70;5.70;;;;;;;;;;5057124;28;20995;-72
2021/07/08 04:53:09;;;;;;;7.27;5.53;;;;;;;;;;5057696;28;20757;-71
2021/07/08 04:55:39;;;;;;;6.43;5.67;;;;;;;;;;5058087;28;20449;-72
2021/07/08 04:58:07;;;;;;;6.50;4.93;;;;;;;;;;5059014;28;20488;-72
2021/07/08 05:00:35;;;;;;;9.33;4.67;;;;;;;;;;5058032;28;20526;-72
2021/07/08 05:03:07;;;;;;;7.50;5.60;;;;;;;;;;5058547;28;20944;-72
2021/07/08 05:05:36;;;;;;;6.33;4.67;;;;;;;;;;5056034;28;20453;-72
2021/07/08 05:08:04;;;;;;;6.20;5.10;;;;;;;;;;5056175;28;20519;-72
2021/07/08 05:10:32;;;;;;;6.10;4.80;;;;;;;;;;5056055;28;20851;-72
2021/07/08 05:13:00;;;;;;;5.73;4.73;;;;;;;;;;5055713;28;20476;-71
2021/07/08 05:15:28;;;;;;;10.30;5.13;;;;;;;;;;5056100;28;20453;-72
2021/07/08 05:17:56;;;;;;;7.60;4.73;;;;;;;;;;5056040;28;20464;-72
2021/07/08 05:20:26;;;;;;;7.63;5.13;;;;;;;;;;5053674;28;20492;-71
2021/07/08 05:23:01;;;;;;;7.10;4.60;;;;;;;;;;5056298;28;20457;-72
2021/07/08 05:25:32;;;;;;;10.20;5.17;;;;;;;;;;5056095;28;20461;-72
2021/07/08 05:28:00;;;;;;;9.43;5.07;;;;;;;;;;5055038;28;20812;-72
2021/07/08 05:30:30;;;;;;;5.40;4.83;;;;;;;;;;5055316;28;20904;-72
2021/07/08 05:32:59;;;;;;;7.70;4.70;;;;;;;;;;5055583;28;20461;-72
2021/07/08 05:35:27;;;;;;;7.10;4.97;;;;;;;;;;5053428;28;20865;-72
2021/07/08 05:37:57;;;;;;;7.40;4.67;;;;;;;;;;5055089;28;20484;-72
2021/07/08 05:40:24;;;;;;;5.80;5.30;;;;;;;;;;5053203;28;20813;-73
2021/07/08 05:42:59;;;;;;;5.17;4.67;;;;;;;;;;5054463;28;20558;-72
2021/07/08 05:45:29;;;;;;;10.13;5.13;;;;;;;;;;5053825;28;20725;-72
2021/07/08 05:47:57;;;;;;;7.10;5.00;;;;;;;;;;5054529;28;20465;-72
2021/07/08 05:50:26;;;;;;;6.70;4.70;;;;;;;;;;5053661;28;20485;-72
2021/07/08 05:52:53;;;;;;;7.03;5.17;;;;;;;;;;5038512;28;20516;-72
2021/07/08 05:55:23;;;;;;;7.37;4.33;;;;;;;;;;5055211;28;20542;-72
2021/07/08 05:57:53;;;;;;;8.17;4.80;;;;;;;;;;5055787;28;20893;-72
2021/07/08 06:00:22;;;;;;;5.93;4.13;;;;;;;;;;5054142;28;20547;-72
2021/07/08 06:02:53;;;;;;;6.33;4.77;;;;;;;;;;5036415;28;20536;-72
2021/07/08 06:05:21;;;;;;;4.10;3.70;;;;;;;;;;5035371;28;20462;-72
2021/07/08 06:07:49;;;;;;;5.87;4.47;;;;;;;;;;5052343;28;20456;-72
2021/07/08 06:10:17;;;;;;;6.33;4.00;;;;;;;;;;5055975;28;20460;-72
2021/07/08 06:12:47;;;;;;;6.70;4.43;;;;;;;;;;5056317;28;20465;-72
2021/07/08 06:15:15;;;;;;;8.40;5.10;;;;;;;;;;5053416;28;20522;-71
2021/07/08 06:17:46;;;;;;;5.90;5.30;;;;;;;;;;5054010;28;20903;-71
2021/07/08 06:20:17;;;;;;;6.70;5.60;;;;;;;;;;5053346;28;20461;-71
2021/07/08 06:22:45;;;;;;;6.50;4.90;;;;;;;;;;5052764;28;20445;-71
2021/07/08 06:25:14;;;;;;;6.90;5.00;;;;;;;;;;5054565;28;20461;-72
2021/07/08 06:27:45;;;;;;;7.50;6.80;;;;;;;;;;5054833;28;20461;-72
2021/07/08 06:30:15;;;;;;;8.87;6.17;;;;;;;;;;5053533;28;20457;-70
2021/07/08 06:32:43;;;;;;;8.37;6.60;;;;;;;;;;5054243;28;20843;-71
2021/07/08 06:35:13;;;;;;;6.03;5.33;;;;;;;;;;5055301;28;20523;-71
2021/07/08 06:37:41;;;;;;;9.23;5.33;;;;;;;;;;5055078;28;20480;-71
2021/07/08 06:40:18;;;;;;;5.40;4.90;;;;;;;;;;5054000;28;20449;-72
2021/07/08 06:42:49;;;;;;;6.20;5.43;;;;;;;;;;5052581;28;20476;-71
2021/07/08 06:45:21;;;;;;;8.37;5.53;;;;;;;;;;5049556;28;20516;-71
2021/07/08 06:47:50;;;;;;;5.97;5.40;;;;;;;;;;5035011;28;20558;-71
2021/07/08 06:50:19;;;;;;;6.30;5.10;;;;;;;;;;5035175;28;20457;-71
2021/07/08 06:52:51;;;;;;;8.03;4.90;;;;;;;;;;5048406;28;20470;-72
2021/07/08 06:55:19;;;;;;;6.17;5.53;;;;;;;;;;5040367;28;20450;-71
2021/07/08 06:57:53;;;;;;;7.70;6.60;;;;;;;;;;5047867;28;20453;-71
2021/07/08 07:00:25;;;;;;;6.10;5.23;;;;;;;;;;5048466;28;20468;-72
2021/07/08 07:05:55;;;;;;;9.10;6.73;;;;;;;;;;5053286;28;20440;-71
2021/07/08 07:08:23;;;;;;;6.57;5.90;;;;;;;;;;5053415;28;20457;-72
2021/07/08 07:10:52;;;;;;;5.90;5.30;;;;;;;;;;5054838;28;20827;-73
2021/07/08 07:13:20;;;;;;;6.40;5.37;;;;;;;;;;5054408;28;20489;-72
2021/07/08 07:15:51;;;;;;;7.80;5.63;;;;;;;;;;5053796;28;20469;-72
2021/07/08 07:18:20;;;;;;;11.07;5.33;;;;;;;;;;5055261;28;20450;-72
2021/07/08 07:20:49;;;;;;;9.63;5.47;;;;;;;;;;5053989;28;20452;-73
2021/07/08 07:23:17;;;;;;;7.67;6.40;;;;;;;;;;5054096;28;20521;-73
2021/07/08 07:25:45;;;;;;;6.93;5.13;;;;;;;;;;5053778;28;20485;-73
2021/07/08 07:28:13;;;;;;;9.77;5.80;;;;;;;;;;5054643;28;20466;-73
2021/07/08 07:30:42;;;;;;;7.80;5.70;;;;;;;;;;5053594;28;21018;-72
2021/07/08 07:33:13;;;;;;;6.70;6.00;;;;;;;;;;5053660;28;20465;-73
2021/07/08 07:35:44;;;;;;;6.47;5.47;;;;;;;;;;5053931;28;20477;-73
2021/07/08 07:38:12;;;;;;;6.17;5.10;;;;;;;;;;5052113;28;20463;-73
2021/07/08 07:40:40;;;;;;;8.67;5.03;;;;;;;;;;5052352;28;20536;-76
2021/07/08 07:43:09;;;;;;;11.53;7.43;;;;;;;;;;5052864;28;20462;-73
2021/07/08 07:45:37;;;;;;;7.67;5.13;;;;;;;;;;5053903;28;20445;-73
2021/07/08 07:48:08;;;;;;;11.70;6.07;;;;;;;;;;5054046;28;20462;-73
2021/07/08 07:50:39;;;;;;;5.53;5.00;;;;;;;;;;5051554;28;20566;-74
2021/07/08 07:53:10;;;;;;;6.43;5.60;;;;;;;;;;5054256;28;20532;-72
2021/07/08 07:55:38;;;;;;;6.57;5.00;;;;;;;;;;5053673;28;20699;-74
2021/07/08 07:58:07;;;;;;;7.20;5.37;;;;;;;;;;5052606;28;20461;-73
2021/07/08 08:00:35;;;;;;;6.77;4.90;;;;;;;;;;5052311;28;20530;-75
2021/07/08 08:03:13;;;;;;;6.33;5.70;;;;;;;;;;5054167;28;20540;-74
2021/07/08 08:05:54;;;;;;;8.10;5.23;;;;;;;;;;5052550;28;20461;-74
2021/07/08 08:08:30;;;;;;;6.90;5.40;;;;;;;;;;5052031;28;20457;-74
2021/07/08 08:11:07;;;;;;;8.00;5.67;;;;;;;;;;5057786;28;20496;-75
2021/07/08 08:13:35;;;;;;;6.63;4.20;;;;;;;;;;5056870;28;20527;-74
2021/07/08 08:16:09;;;;;;;9.27;7.23;;;;;;;;;;5056922;28;20465;-74
2021/07/08 08:18:37;;;;;;;6.63;4.47;;;;;;;;;;5057360;28;20445;-74
2021/07/08 08:21:07;;;;;;;8.57;5.30;;;;;;;;;;5057762;28;20460;-74
2021/07/08 08:23:38;;;;;;;7.43;4.20;;;;;;;;;;5057037;28;20514;-74
2021/07/08 08:26:11;;;;;;;7.03;4.60;;;;;;;;;;5056932;28;20461;-75
2021/07/08 08:28:41;;;;;;;5.80;4.20;;;;;;;;;;5056952;28;20460;-73
2021/07/08 08:31:11;;;;;;;5.33;4.30;;;;;;;;;;5057707;28;20477;-73
2021/07/08 08:33:41;;;;;;;7.50;4.30;;;;;;;;;;5057256;28;20477;-74
2021/07/08 08:36:11;;;;;;;7.30;5.87;;;;;;;;;;5048242;28;20466;-73
2021/07/08 08:38:40;;;;;;;8.90;5.10;;;;;;;;;;5038243;28;21106;-74
2021/07/08 08:41:16;;;;;;;4.80;4.30;;;;;;;;;;5055429;28;20525;-73
2021/07/08 08:43:45;;;;;;;8.43;4.40;;;;;;;;;;5057022;28;20448;-72
2021/07/08 08:46:16;;;;;;;9.33;5.10;;;;;;;;;;5056558;28;20466;-73
2021/07/08 08:48:44;;;;;;;5.60;4.47;;;;;;;;;;5048777;28;20547;-73
2021/07/08 08:51:18;;;;;;;7.10;3.90;;;;;;;;;;5042691;28;20560;-73
2021/07/08 08:53:51;;;;;;;5.03;3.80;;;;;;;;;;5056368;28;20469;-74
2021/07/08 08:56:19;;;;;;;5.20;4.40;;;;;;;;;;5052847;28;21128;-74
2021/07/08 08:58:47;;;;;;;5.90;4.03;;;;;;;;;;5057664;28;20548;-73
2021/07/08 09:01:20;;;;;;;9.60;3.73;;;;;;;;;;5057231;28;20594;-73
2021/07/08 09:03:52;;;;;;;4.50;3.77;;;;;;;;;;5053789;28;20546;-75
2021/07/08 09:06:21;;;;;;;9.80;4.30;;;;;;;;;;5050281;28;20450;-74
2021/07/08 09:08:53;;;;;;;4.73;4.20;;;;;;;;;;5049758;28;20817;-74
2021/07/08 09:11:32;;;;;;;8.23;4.30;;;;;;;;;;5038846;28;20466;-73
2021/07/08 09:14:01;;;;;;;5.03;4.20;;;;;;;;;;5056477;28;20457;-74
2021/07/08 09:16:37;;;;;;;7.20;3.97;;;;;;;;;;5051161;28;20770;-74
2021/07/08 09:19:17;;;;;;;6.70;4.97;;;;;;;;;;5039321;28;20534;-74
2021/07/08 09:24:39;;;;;;;7.13;4.50;;;;;;;;;;5047870;28;20465;-74
2021/07/08 09:27:17;;;;;;;5.07;4.20;;;;;;;;;;5055332;28;20923;-73
2021/07/08 09:29:51;;;;;;;5.67;4.10;;;;;;;;;;5055756;28;20456;-74
2021/07/08 09:32:24;;;;;;;7.03;4.43;;;;;;;;;;5050549;28;20555;-74
2021/07/08 09:35:01;;;;;;;4.90;3.83;;;;;;;;;;5050124;28;20570;-74
2021/07/08 09:37:31;;;;;;;5.43;3.80;;;;;;;;;;5052859;28;20457;-73
2021/07/08 09:40:02;;;;;;;8.00;3.83;;;;;;;;;;5056036;28;20464;-74
2021/07/08 09:42:38;;;;;;;5.20;3.50;;;;;;;;;;5046361;28;20463;-74
2021/07/08 09:45:16;;;;;;;4.63;3.50;;;;;;;;;;5060956;28;20460;-74
2021/07/08 09:47:46;;;;;;;5.40;3.70;;;;;;;;;;5046576;28;20503;-75
2021/07/08 09:50:15;;;;;;;4.77;3.60;;;;;;;;;;5056745;28;20730;-73
2021/07/08 09:56:07;;;;;;;5.80;4.00;;;;;;;;;;5038280;28;20777;-73
2021/07/08 09:58:36;;;;;;;10.20;6.93;;;;;;;;;;5052969;28;20449;-74
2021/07/08 10:01:16;;;;;;;6.87;4.10;;;;;;;;;;5054629;28;21082;-73
2021/07/08 10:03:48;;;;;;;7.17;5.13;;;;;;;;;;5049044;28;20796;-74
2021/07/08 10:06:25;;;;;;;8.77;4.20;;;;;;;;;;5034165;28;20496;-74
2021/07/08 10:08:54;;;;;;;4.30;3.47;;;;;;;;;;5051410;28;20592;-73
2021/07/08 10:11:29;;;;;;;7.90;5.30;;;;;;;;;;5054798;28;20698;-73
2021/07/08 10:14:03;;;;;;;5.20;4.70;;;;;;;;;;5053657;28;20445;-73
2021/07/08 10:16:40;;;;;;;5.47;3.33;;;;;;;;;;5053632;28;20897;-73
2021/07/08 10:22:06;;;;;;;5.40;4.63;;;;;;;;;;5050378;28;20453;-73
2021/07/08 10:24:53;;;;;;;4.63;3.20;;;;;;;;;;5036565;28;20452;-73
2021/07/08 10:27:31;;;;;;;7.43;4.00;;;;;;;;;;5046487;28;20556;-73
2021/07/08 10:30:05;;;;;;;4.70;3.20;;;;;;;;;;5051938;28;20485;-73
2021/07/08 10:32:38;;;;;;;4.40;3.83;;;;;;;;;;5045147;28;20476;-74
2021/07/08 10:35:22;;;;;;;5.80;3.90;;;;;;;;;;5046760;28;20461;-73
2021/07/08 10:38:01;;;;;;;6.43;4.73;;;;;;;;;;5050621;28;20457;-72
2021/07/08 10:43:47;;;;;;;6.30;4.63;;;;;;;;;;5061006;28;20495;-73
2021/07/08 10:46:20;;;;;;;9.67;5.13;;;;;;;;;;5057995;28;20449;-72
2021/07/08 10:48:55;;;;;;;4.80;3.90;;;;;;;;;;5055127;28;20453;-73
2021/07/08 10:54:27;;;;;;;6.23;4.63;;;;;;;;;;5055225;28;20511;-73
2021/07/08 10:57:00;;;;;;;4.10;3.70;;;;;;;;;;5054985;28;20563;-72
2021/07/08 10:59:44;;;;;;;3.63;3.27;;;;;;;;;;5055728;28;20901;-72
2021/07/08 11:02:37;;;;;;;5.33;4.60;;;;;;;;;;5055577;28;20455;-72
2021/07/08 11:05:06;;;;;;;4.67;3.70;;;;;;;;;;5054471;28;20465;-73
2021/07/08 11:07:46;;;;;;;6.23;3.20;;;;;;;;;;5054761;28;20468;-73
2021/07/08 11:10:15;;;;;;;9.93;3.63;;;;;;;;;;5053736;28;20461;-73
2021/07/08 11:12:44;;;;;;;5.80;3.50;;;;;;;;;;5054538;28;20492;-73
2021/07/08 11:15:15;;;;;;;7.03;4.70;;;;;;;;;;5055472;28;20457;-72
2021/07/08 11:17:47;;;;;;;9.20;4.30;;;;;;;;;;5044575;28;20453;-72
2021/07/08 11:23:39;;;;;;;10.00;4.00;;;;;;;;;;5050936;28;20446;-73
2021/07/08 11:26:13;;;;;;;5.23;4.40;;;;;;;;;;5053155;28;20479;-72
2021/07/08 11:28:41;;;;;;;3.33;3.03;;;;;;;;;;5054200;28;20548;-72
2021/07/08 11:31:12;;;;;;;3.70;3.10;;;;;;;;;;5053267;28;20449;-73
2021/07/08 11:33:44;;;;;;;4.63;3.37;;;;;;;;;;5054170;28;21015;-73
2021/07/08 11:36:20;;;;;;;3.87;3.47;;;;;;;;;;5054592;28;20457;-73
2021/07/08 11:38:50;;;;;;;4.50;3.90;;;;;;;;;;5054782;28;20467;-72
2021/07/08 11:41:24;;;;;;;5.20;2.83;;;;;;;;;;5053408;28;21072;-73
2021/07/08 11:43:52;;;;;;;7.20;4.20;;;;;;;;;;5052878;28;20458;-72
2021/07/08 11:46:21;;;;;;;4.60;4.13;;;;;;;;;;5057463;28;20460;-72
2021/07/08 11:48:52;;;;;;;8.07;6.10;;;;;;;;;;5057293;28;20982;-73
2021/07/08 11:51:28;;;;;;;5.43;4.40;;;;;;;;;;5058375;28;20458;-72
2021/07/08 11:53:59;;;;;;;5.47;3.67;;;;;;;;;;5057012;28;20476;-71
2021/07/08 11:56:38;;;;;;;4.50;3.20;;;;;;;;;;5056391;28;20456;-73
2021/07/08 11:59:07;;;;;;;4.60;2.77;;;;;;;;;;5058850;28;20464;-72
2021/07/08 12:01:35;;;;;;;3.00;2.40;;;;;;;;;;5057683;28;20919;-73
2021/07/08 12:04:05;;;;;;;2.40;2.07;;;;;;;;;;5058168;28;20982;-73
2021/07/08 12:06:34;;;;;;;4.03;2.60;;;;;;;;;;5039233;28;20449;-73
2021/07/08 12:09:05;;;;;;;3.60;2.50;;;;;;;;;;5038669;28;20527;-74
2021/07/08 12:11:36;;;;;;;4.70;4.10;;;;;;;;;;5038401;28;20477;-73
2021/07/08 12:14:06;;;;;;;4.70;2.60;;;;;;;;;;5037592;28;20576;-73
2021/07/08 12:16:36;;;;;;;5.80;3.30;;;;;;;;;;5048774;28;20807;-74
2021/07/08 12:19:06;;;;;;;7.53;3.40;;;;;;;;;;5059566;28;20797;-73
2021/07/08 12:21:37;;;;;;;5.70;2.73;;;;;;;;;;5057359;28;20517;-73
2021/07/08 12:24:08;;;;;;;5.73;4.13;;;;;;;;;;5058425;28;20461;-72
2021/07/08 12:26:56;;;;;;;3.27;2.97;;;;;;;;;;5045892;28;20537;-74
2021/07/08 12:29:27;;;;;;;3.57;2.70;;;;;;;;;;5058647;28;20461;-74
2021/07/08 12:31:57;;;;;;;5.57;3.67;;;;;;;;;;5059656;28;20465;-73
2021/07/08 12:34:27;;;;;;;4.10;3.30;;;;;;;;;;5057688;28;20472;-74
2021/07/08 12:36:59;;;;;;;5.33;3.07;;;;;;;;;;5060472;28;20528;-73
2021/07/08 12:39:30;;;;;;;6.43;3.70;;;;;;;;;;5058512;28;20468;-73
2021/07/08 12:42:03;;;;;;;4.60;3.57;;;;;;;;;;5055563;28;20457;-72
2021/07/08 12:44:31;;;;;;;3.53;2.90;;;;;;;;;;5044623;28;20529;-72
2021/07/08 12:47:00;;;;;;;4.30;3.90;;;;;;;;;;5057139;28;20445;-72
2021/07/08 12:49:38;;;;;;;3.67;2.93;;;;;;;;;;5045455;28;20449;-73
2021/07/08 12:52:15;;;;;;;5.60;4.43;;;;;;;;;;5058923;28;20480;-73
2021/07/08 12:54:45;;;;;;;3.40;2.90;;;;;;;;;;5056091;28;21025;-72
2021/07/08 12:57:16;;;;;;;3.70;2.90;;;;;;;;;;5057589;28;20454;-73
2021/07/08 13:03:03;;;;;;;3.77;3.20;;;;;;;;;;5033752;28;20462;-73
2021/07/08 13:06:02;;;;;;;4.97;2.83;;;;;;;;;;5058535;28;20460;-73
2021/07/08 13:08:41;;;;;;;5.80;4.30;;;;;;;;;;5042005;28;20446;-73
2021/07/08 13:11:20;;;;;;;5.20;3.93;;;;;;;;;;5056729;28;20961;-73
2021/07/08 13:13:49;;;;;;;4.20;3.10;;;;;;;;;;5057307;28;20905;-73
2021/07/08 13:16:21;;;;;;;6.40;3.13;;;;;;;;;;5057215;28;20446;-75
2021/07/08 13:18:52;;;;;;;3.87;2.70;;;;;;;;;;5056972;28;20865;-74
2021/07/08 13:21:29;;;;;;;6.53;3.53;;;;;;;;;;5057208;28;20548;-72
2021/07/08 13:23:59;;;;;;;5.43;3.33;;;;;;;;;;5057302;28;20453;-73
2021/07/08 13:26:48;;;;;;;5.50;3.90;;;;;;;;;;5056111;28;20541;-74
2021/07/08 13:29:37;;;;;;;5.50;3.23;;;;;;;;;;5056129;28;20449;-73
2021/07/08 13:32:23;;;;;;;4.43;2.70;;;;;;;;;;5056571;28;20473;-73
2021/07/08 13:34:54;;;;;;;6.00;3.27;;;;;;;;;;5055629;28;20560;-73
2021/07/08 13:37:26;;;;;;;12.23;7.20;;;;;;;;;;5056659;28;20785;-72
2021/07/08 13:40:17;;;;;;;7.07;3.87;;;;;;;;;;5056084;28;20846;-73
2021/07/08 13:42:51;;;;;;;4.50;3.00;;;;;;;;;;5047257;28;20427;-73
2021/07/08 13:45:32;;;;;;;5.10;3.33;;;;;;;;;;5053108;28;20850;-73
2021/07/08 13:48:16;;;;;;;5.10;3.10;;;;;;;;;;5046125;28;20527;-73
2021/07/08 13:50:46;;;;;;;3.67;2.87;;;;;;;;;;5048762;28;20480;-74
2021/07/08 13:53:17;;;;;;;5.73;2.67;;;;;;;;;;5050955;28;20477;-73
2021/07/08 13:55:45;;;;;;;4.00;2.50;;;;;;;;;;5054080;28;20460;-73
2021/07/08 13:58:19;;;;;;;3.63;2.20;;;;;;;;;;5054514;28;20933;-74
2021/07/08 14:00:52;;;;;;;5.10;3.50;;;;;;;;;;5055880;28;20465;-73
2021/07/08 14:03:29;;;;;;;5.70;2.70;;;;;;;;;;5055250;28;20513;-72
2021/07/08 14:06:27;;;;;;;3.57;3.20;;;;;;;;;;5047318;28;20897;-72
2021/07/08 14:12:07;;;;;;;10.10;3.73;;;;;;;;;;5054525;28;20437;-74
2021/07/08 14:14:38;;;;;;;6.20;3.10;;;;;;;;;;5056188;28;20516;-71
2021/07/08 14:17:12;;;;;;;10.67;5.87;;;;;;;;;;5057215;28;20465;-73
2021/07/08 14:19:41;;;;;;;3.23;2.70;;;;;;;;;;5054429;28;20737;-73
2021/07/08 14:22:12;;;;;;;5.30;3.10;;;;;;;;;;5054427;28;20449;-72
2021/07/08 14:25:00;;;;;;;3.90;2.70;;;;;;;;;;5054157;28;20841;-72
2021/07/08 14:27:34;;;;;;;3.20;2.90;;;;;;;;;;5051952;28;20629;-72
2021/07/08 14:30:14;;;;;;;5.27;2.83;;;;;;;;;;5056427;28;20531;-73
2021/07/08 14:32:43;;;;;;;3.40;3.00;;;;;;;;;;5055213;28;20460;-73
2021/07/08 14:35:16;;;;;;;6.97;3.50;;;;;;;;;;5051183;28;20456;-74
2021/07/08 14:37:51;;;;;;;4.40;3.27;;;;;;;;;;5055425;28;20532;-74
2021/07/08 14:40:20;;;;;;;5.10;2.80;;;;;;;;;;5056242;28;20483;-74
2021/07/08 14:42:55;;;;;;;5.47;4.00;;;;;;;;;;5034950;28;20466;-74
2021/07/08 14:45:26;;;;;;;4.63;3.10;;;;;;;;;;5036726;28;20449;-74
2021/07/08 14:47:54;;;;;;;3.07;2.30;;;;;;;;;;5056773;28;20702;-73
2021/07/08 14:50:26;;;;;;;4.23;2.67;;;;;;;;;;5054498;28;20461;-73
2021/07/08 14:52:58;;;;;;;5.20;2.47;;;;;;;;;;5054735;28;20518;-72
2021/07/08 14:55:27;;;;;;;4.00;2.13;;;;;;;;;;5048242;28;20526;-73
2021/07/08 14:57:59;;;;;;;6.40;3.03;;;;;;;;;;5055225;28;20483;-74
2021/07/08 15:00:28;;;;;;;4.00;2.83;;;;;;;;;;5054796;28;20449;-73
2021/07/08 15:02:56;;;;;;;7.27;3.93;;;;;;;;;;5054711;28;20515;-74
2021/07/08 15:05:37;;;;;;;10.03;4.67;;;;;;;;;;5056156;28;20457;-76
2021/07/08 15:08:09;;;;;;;9.30;4.50;;;;;;;;;;5053813;28;20715;-74
2021/07/08 15:10:47;;;;;;;9.03;5.00;;;;;;;;;;5052730;28;20449;-75
2021/07/08 15:13:17;;;;;;;9.00;6.50;;;;;;;;;;5055096;28;20527;-72
2021/07/08 15:15:45;;;;;;;8.50;6.47;;;;;;;;;;5053704;28;20461;-74
2021/07/08 15:18:13;;;;;;;7.40;6.40;;;;;;;;;;5055773;28;20531;-74
2021/07/08 15:20:41;;;;;;;9.57;6.63;;;;;;;;;;5054814;28;20548;-74
2021/07/08 15:23:11;;;;;;;9.73;5.93;;;;;;;;;;5054513;28;20858;-74
2021/07/08 15:25:39;;;;;;;8.73;6.60;;;;;;;;;;5054659;28;20465;-73
2021/07/08 15:28:07;;;;;;;6.70;5.10;;;;;;;;;;5055324;28;20464;-74
2021/07/08 15:30:36;;;;;;;6.13;4.97;;;;;;;;;;5054964;28;20943;-74
2021/07/08 15:33:05;;;;;;;6.07;5.47;;;;;;;;;;5054263;28;20878;-74